Time;durP1;ratioP1;P1;durP2;ratioP2;P2;SDS_P1;SDS_P2;PMS_P1;PMS_P2;Temp;Humidity;BMP_temperature;BMP_pressure;BME280_temperature;BME280_humidity;BME280_pressure;Samples;Min_cycle;Max_cycle;Signal;HPM_P1;HPM_P2
2024/01/12 07:46:58;;;;;;;53.42;21.95;;;;;;;;;;2084467;28;20694;-59
2024/01/12 07:48:00;;;;;;;71.20;25.98;;;;;;;;;;2080235;28;20307;-60
2024/01/12 07:49:01;;;;;;;57.38;24.10;;;;;;;;;;2078375;28;20209;-60
2024/01/12 07:50:03;;;;;;;71.03;26.35;;;;;;;;;;2071899;28;20672;-60
2024/01/12 07:51:04;;;;;;;64.80;25.60;;;;;;;;;;2074384;28;20649;-60
2024/01/12 07:52:06;;;;;;;61.40;28.05;;;;;;;;;;2068313;28;20652;-60
2024/01/12 07:53:07;;;;;;;58.28;25.27;;;;;;;;;;2072608;28;20334;-61
2024/01/12 07:54:09;;;;;;;53.50;26.63;;;;;;;;;;2068617;28;20232;-61
2024/01/12 07:55:10;;;;;;;62.63;26.73;;;;;;;;;;2079206;28;20199;-61
2024/01/12 07:56:12;;;;;;;62.97;27.67;;;;;;;;;;2081188;28;20205;-61
2024/01/12 07:57:13;;;;;;;57.53;27.02;;;;;;;;;;2069244;28;20204;-62
2024/01/12 07:58:18;;;;;;;65.28;27.35;;;;;;;;;;2071271;28;20564;-61
2024/01/12 07:59:19;;;;;;;63.22;27.30;;;;;;;;;;2072288;28;20229;-59
2024/01/12 08:00:21;;;;;;;58.55;26.80;;;;;;;;;;2073120;28;20213;-59
2024/01/12 08:01:22;;;;;;;66.97;28.50;;;;;;;;;;2073314;28;20206;-58
2024/01/12 08:02:23;;;;;;;54.08;25.48;;;;;;;;;;2072702;28;20215;-59
2024/01/12 08:03:25;;;;;;;49.83;25.02;;;;;;;;;;2070077;28;20222;-58
2024/01/12 08:04:26;;;;;;;54.50;26.27;;;;;;;;;;2071174;28;20223;-59
2024/01/12 08:05:28;;;;;;;52.17;24.75;;;;;;;;;;2069488;28;20201;-59
2024/01/12 08:06:34;;;;;;;52.05;24.25;;;;;;;;;;2073148;28;20584;-59
2024/01/12 08:07:36;;;;;;;48.55;23.95;;;;;;;;;;2073824;28;20267;-59
2024/01/12 08:08:37;;;;;;;55.15;24.48;;;;;;;;;;2072468;28;20193;-59
2024/01/12 08:09:39;;;;;;;50.78;24.38;;;;;;;;;;2069177;28;20687;-59
2024/01/12 08:10:40;;;;;;;53.17;24.33;;;;;;;;;;2071967;28;20273;-60
2024/01/12 08:11:42;;;;;;;56.65;23.98;;;;;;;;;;2069883;28;20232;-58
2024/01/12 08:12:44;;;;;;;53.85;24.70;;;;;;;;;;2065153;28;20193;-57
2024/01/12 08:13:45;;;;;;;48.00;23.45;;;;;;;;;;2071097;28;20272;-57
2024/01/12 08:14:47;;;;;;;43.65;23.23;;;;;;;;;;2069081;28;20225;-57
2024/01/12 08:15:48;;;;;;;47.50;23.73;;;;;;;;;;2067168;28;20198;-58
2024/01/12 08:16:50;;;;;;;45.55;24.75;;;;;;;;;;2067504;28;20198;-58
2024/01/12 08:17:51;;;;;;;51.63;24.70;;;;;;;;;;2069390;28;20194;-58
2024/01/12 08:18:53;;;;;;;46.63;24.73;;;;;;;;;;2071864;28;20664;-58
2024/01/12 08:19:54;;;;;;;43.60;23.35;;;;;;;;;;2073414;28;20193;-57
2024/01/12 08:20:56;;;;;;;43.42;24.75;;;;;;;;;;2073071;28;20280;-57
2024/01/12 08:21:58;;;;;;;44.22;24.15;;;;;;;;;;2072631;28;20197;-58
2024/01/12 08:23:03;;;;;;;50.60;23.38;;;;;;;;;;2074602;28;20560;-58
2024/01/12 08:24:04;;;;;;;49.38;24.70;;;;;;;;;;2070975;28;20277;-59
2024/01/12 08:25:06;;;;;;;48.60;23.90;;;;;;;;;;2071679;28;20208;-58
2024/01/12 08:26:07;;;;;;;55.90;26.00;;;;;;;;;;2071112;28;20201;-58
2024/01/12 08:27:09;;;;;;;49.83;25.10;;;;;;;;;;2069078;28;20218;-58
2024/01/12 08:28:10;;;;;;;53.90;25.75;;;;;;;;;;2070986;28;20201;-58
2024/01/12 08:29:11;;;;;;;51.28;25.42;;;;;;;;;;2070800;28;20372;-61
2024/01/12 08:30:13;;;;;;;51.85;25.23;;;;;;;;;;2069265;28;20236;-61
2024/01/12 08:31:14;;;;;;;47.83;26.48;;;;;;;;;;2070120;28;20202;-60
2024/01/12 08:32:16;;;;;;;46.10;26.02;;;;;;;;;;2070747;28;20199;-63
2024/01/12 08:33:17;;;;;;;48.70;25.45;;;;;;;;;;2071720;28;20206;-60
2024/01/12 08:34:19;;;;;;;49.53;27.00;;;;;;;;;;2069784;28;20229;-60
2024/01/12 08:35:21;;;;;;;50.58;25.20;;;;;;;;;;2067852;28;20549;-60
2024/01/12 08:36:23;;;;;;;55.15;27.23;;;;;;;;;;2072913;28;20236;-60
2024/01/12 08:37:24;;;;;;;54.03;27.10;;;;;;;;;;2069965;28;20197;-60
2024/01/12 08:38:25;;;;;;;47.92;25.60;;;;;;;;;;2064168;28;20689;-60
2024/01/12 08:39:29;;;;;;;43.83;25.38;;;;;;;;;;2064623;28;20225;-60
2024/01/12 08:40:30;;;;;;;45.42;24.73;;;;;;;;;;2072799;28;20190;-60
2024/01/12 08:41:31;;;;;;;46.42;25.92;;;;;;;;;;2070817;28;20228;-60
2024/01/12 08:42:33;;;;;;;40.53;22.92;;;;;;;;;;2070085;28;20538;-60
2024/01/12 08:43:34;;;;;;;54.17;26.65;;;;;;;;;;2072012;28;20198;-60
2024/01/12 08:44:38;;;;;;;55.75;24.60;;;;;;;;;;2068157;28;20312;-60
2024/01/12 08:45:40;;;;;;;52.50;27.17;;;;;;;;;;2069131;28;21203;-60
2024/01/12 08:46:41;;;;;;;53.28;26.33;;;;;;;;;;2069219;28;20236;-59
2024/01/12 08:47:42;;;;;;;46.78;25.88;;;;;;;;;;2069241;28;20278;-59
2024/01/12 08:48:44;;;;;;;53.53;26.45;;;;;;;;;;2068303;28;20765;-59
2024/01/12 08:49:46;;;;;;;53.53;27.17;;;;;;;;;;2071093;28;20276;-59
2024/01/12 08:50:47;;;;;;;48.05;26.15;;;;;;;;;;2069866;28;20205;-59
2024/01/12 08:51:49;;;;;;;51.35;25.35;;;;;;;;;;2070564;28;20191;-59
2024/01/12 08:52:51;;;;;;;46.55;24.60;;;;;;;;;;2074240;28;20249;-60
2024/01/12 08:53:53;;;;;;;44.13;24.00;;;;;;;;;;2075642;28;20294;-59
2024/01/12 08:54:54;;;;;;;41.42;23.35;;;;;;;;;;2066184;28;20242;-60
2024/01/12 08:55:55;;;;;;;51.80;25.38;;;;;;;;;;2066209;28;20278;-61
2024/01/12 08:56:57;;;;;;;44.08;25.15;;;;;;;;;;2066871;28;20542;-61
2024/01/12 08:57:59;;;;;;;51.53;25.05;;;;;;;;;;2064148;28;20197;-62
2024/01/12 08:59:00;;;;;;;40.90;22.40;;;;;;;;;;2063906;28;20281;-62
2024/01/12 09:00:03;;;;;;;41.83;22.45;;;;;;;;;;2068530;28;20206;-63
2024/01/12 09:01:06;;;;;;;39.20;21.27;;;;;;;;;;2063715;28;20198;-62
2024/01/12 09:02:07;;;;;;;45.00;22.85;;;;;;;;;;2070137;28;20194;-60
2024/01/12 09:03:09;;;;;;;42.28;23.17;;;;;;;;;;2064599;28;20199;-60
2024/01/12 09:04:10;;;;;;;44.22;24.67;;;;;;;;;;2056854;28;20645;-60
2024/01/12 09:05:12;;;;;;;38.35;22.05;;;;;;;;;;2063057;28;20195;-60
2024/01/12 09:06:13;;;;;;;37.35;22.70;;;;;;;;;;2062132;28;20210;-59
2024/01/12 09:07:15;;;;;;;41.42;24.27;;;;;;;;;;2065515;28;20233;-60
2024/01/12 09:08:17;;;;;;;38.10;23.02;;;;;;;;;;2067030;28;20204;-60
2024/01/12 09:09:18;;;;;;;40.95;22.70;;;;;;;;;;2063620;28;20268;-60
2024/01/12 09:10:20;;;;;;;40.83;22.70;;;;;;;;;;2066414;28;20727;-64
2024/01/12 09:11:21;;;;;;;47.10;23.80;;;;;;;;;;2065754;28;20191;-64
2024/01/12 09:12:23;;;;;;;40.70;23.30;;;;;;;;;;2071315;28;20264;-60
2024/01/12 09:13:24;;;;;;;36.22;20.67;;;;;;;;;;2070808;28;20654;-59
2024/01/12 09:14:27;;;;;;;44.75;23.55;;;;;;;;;;2063030;28;20218;-59
2024/01/12 09:15:29;;;;;;;46.25;23.35;;;;;;;;;;2063789;28;20251;-59
2024/01/12 09:16:30;;;;;;;39.30;21.80;;;;;;;;;;2065027;28;20564;-59
2024/01/12 09:17:31;;;;;;;41.15;23.38;;;;;;;;;;2066023;28;20645;-58
2024/01/12 09:18:33;;;;;;;41.85;23.60;;;;;;;;;;2065865;28;20325;-58
2024/01/12 09:19:35;;;;;;;51.35;24.90;;;;;;;;;;2068726;28;20229;-58
2024/01/12 09:20:37;;;;;;;46.20;23.92;;;;;;;;;;2063267;28;20205;-58
2024/01/12 09:21:38;;;;;;;46.75;24.40;;;;;;;;;;2065406;28;20823;-58
2024/01/12 09:22:40;;;;;;;47.00;25.02;;;;;;;;;;2063826;28;20717;-58
2024/01/12 09:23:42;;;;;;;44.55;24.38;;;;;;;;;;2062590;28;20203;-58
2024/01/12 09:24:44;;;;;;;48.47;25.88;;;;;;;;;;2060201;28;20677;-59
2024/01/12 09:25:46;;;;;;;44.20;23.42;;;;;;;;;;2065252;28;20198;-59
2024/01/12 09:26:48;;;;;;;46.05;23.92;;;;;;;;;;2067996;28;20909;-58
2024/01/12 09:27:52;;;;;;;50.20;24.23;;;;;;;;;;2065769;28;20216;-59
2024/01/12 09:28:53;;;;;;;47.70;24.67;;;;;;;;;;2063266;28;20286;-59
2024/01/12 09:29:55;;;;;;;49.25;25.60;;;;;;;;;;2065874;28;20186;-59
2024/01/12 09:30:56;;;;;;;46.42;24.42;;;;;;;;;;2068453;28;20820;-59
2024/01/12 09:31:57;;;;;;;50.42;24.52;;;;;;;;;;2067584;28;20235;-58
2024/01/12 09:32:59;;;;;;;45.10;25.33;;;;;;;;;;2066645;28;20198;-59
2024/01/12 09:34:01;;;;;;;41.45;24.02;;;;;;;;;;2066058;28;20194;-60
2024/01/12 09:35:03;;;;;;;52.20;25.75;;;;;;;;;;2066789;28;20252;-59
2024/01/12 09:36:04;;;;;;;48.97;26.92;;;;;;;;;;2065706;28;20226;-59
2024/01/12 09:37:06;;;;;;;47.17;28.33;;;;;;;;;;2065086;28;20194;-59
2024/01/12 09:38:07;;;;;;;47.28;28.35;;;;;;;;;;2063798;28;20613;-59
2024/01/12 09:39:14;;;;;;;48.00;27.48;;;;;;;;;;2064616;28;20696;-59
2024/01/12 09:40:17;;;;;;;48.80;27.98;;;;;;;;;;2066559;28;20202;-59
2024/01/12 09:41:23;;;;;;;47.42;28.23;;;;;;;;;;2065640;28;20197;-59
2024/01/12 09:42:30;;;;;;;47.78;27.85;;;;;;;;;;2063792;28;20194;-59
2024/01/12 09:43:35;;;;;;;47.42;28.33;;;;;;;;;;2063005;28;20198;-59
2024/01/12 09:44:37;;;;;;;57.25;28.88;;;;;;;;;;2061982;28;20285;-59
2024/01/12 09:45:44;;;;;;;52.10;29.45;;;;;;;;;;2065010;28;20906;-60
2024/01/12 09:46:56;;;;;;;51.80;29.88;;;;;;;;;;2063852;28;20261;-60
2024/01/12 09:47:57;;;;;;;52.33;28.00;;;;;;;;;;2061929;28;20222;-60
2024/01/12 09:48:59;;;;;;;53.45;30.23;;;;;;;;;;2062360;28;20310;-59
2024/01/12 09:50:00;;;;;;;57.60;29.25;;;;;;;;;;2064836;28;20277;-59
2024/01/12 09:51:03;;;;;;;50.78;29.30;;;;;;;;;;2065633;28;20197;-59
2024/01/12 09:52:07;;;;;;;50.15;30.02;;;;;;;;;;2066179;28;20700;-59
2024/01/12 09:53:09;;;;;;;49.58;29.48;;;;;;;;;;2066537;28;20338;-59
2024/01/12 09:54:10;;;;;;;52.35;30.00;;;;;;;;;;2064750;28;20195;-60
2024/01/12 09:55:12;;;;;;;51.45;31.00;;;;;;;;;;2065472;28;20230;-59
2024/01/12 09:56:14;;;;;;;50.08;30.20;;;;;;;;;;2066491;28;20233;-59
2024/01/12 09:57:16;;;;;;;53.15;30.98;;;;;;;;;;2064875;28;20202;-59
2024/01/12 09:58:20;;;;;;;47.22;29.67;;;;;;;;;;2064517;28;20916;-60
2024/01/12 09:59:22;;;;;;;54.28;31.75;;;;;;;;;;2061293;28;20690;-60
2024/01/12 10:00:26;;;;;;;55.78;31.42;;;;;;;;;;2063465;28;20205;-60
2024/01/12 10:01:28;;;;;;;63.25;30.63;;;;;;;;;;2067491;28;20199;-60
2024/01/12 10:02:29;;;;;;;55.35;29.52;;;;;;;;;;2066752;28;20197;-59
2024/01/12 10:03:31;;;;;;;51.30;29.88;;;;;;;;;;2064181;28;20202;-59
2024/01/12 10:04:33;;;;;;;53.03;30.00;;;;;;;;;;2067186;28;20227;-59
2024/01/12 10:05:37;;;;;;;55.80;29.77;;;;;;;;;;2067511;28;20221;-60
2024/01/12 10:06:38;;;;;;;68.63;30.30;;;;;;;;;;2066976;28;20619;-60
2024/01/12 10:07:40;;;;;;;48.80;29.63;;;;;;;;;;2062144;28;20223;-59
2024/01/12 10:08:41;;;;;;;50.42;30.98;;;;;;;;;;2061559;28;20226;-59
2024/01/12 10:09:43;;;;;;;55.75;30.38;;;;;;;;;;2064647;28;20297;-59
2024/01/12 10:10:44;;;;;;;53.35;30.95;;;;;;;;;;2066943;28;20198;-59
2024/01/12 10:11:45;;;;;;;54.80;31.42;;;;;;;;;;2064818;28;20194;-60
2024/01/12 10:12:47;;;;;;;52.08;30.42;;;;;;;;;;2065007;28;21091;-60
2024/01/12 10:13:49;;;;;;;56.70;31.20;;;;;;;;;;2064671;28;20198;-60
2024/01/12 10:15:03;;;;;;;50.45;29.48;;;;;;;;;;2064882;28;20223;-60
2024/01/12 10:16:07;;;;;;;48.30;29.20;;;;;;;;;;2064789;28;20191;-60
2024/01/12 10:17:11;;;;;;;49.85;30.15;;;;;;;;;;2065271;28;20226;-60
2024/01/12 10:18:12;;;;;;;57.67;30.58;;;;;;;;;;2064596;28;20382;-60
2024/01/12 10:19:14;;;;;;;47.80;29.20;;;;;;;;;;2071797;28;20241;-59
2024/01/12 10:20:15;;;;;;;48.08;29.08;;;;;;;;;;2066943;28;20209;-61
2024/01/12 10:21:17;;;;;;;50.08;28.02;;;;;;;;;;2067272;28;20194;-60
2024/01/12 10:22:19;;;;;;;51.83;31.33;;;;;;;;;;2065868;28;20206;-60
2024/01/12 10:23:21;;;;;;;54.72;31.40;;;;;;;;;;2063274;28;20202;-60
2024/01/12 10:24:22;;;;;;;55.67;31.27;;;;;;;;;;2066356;28;20602;-60
2024/01/12 10:25:24;;;;;;;59.38;31.42;;;;;;;;;;2064270;28;20234;-60
2024/01/12 10:26:25;;;;;;;48.72;29.02;;;;;;;;;;2059881;28;20210;-59
2024/01/12 10:27:27;;;;;;;52.08;29.48;;;;;;;;;;2064706;28;20202;-60
2024/01/12 10:28:32;;;;;;;57.15;33.13;;;;;;;;;;2063868;28;20273;-60
2024/01/12 10:29:38;;;;;;;51.70;30.63;;;;;;;;;;2062774;28;20242;-60
2024/01/12 10:30:39;;;;;;;54.65;32.15;;;;;;;;;;2064209;28;20201;-60
2024/01/12 10:31:42;;;;;;;54.70;31.83;;;;;;;;;;2063992;28;20240;-60
2024/01/12 10:32:49;;;;;;;51.00;30.70;;;;;;;;;;2064311;28;20747;-61
2024/01/12 10:33:52;;;;;;;52.80;29.60;;;;;;;;;;2064307;28;20219;-59
2024/01/12 10:34:53;;;;;;;50.35;29.98;;;;;;;;;;2063715;28;20225;-59
2024/01/12 10:36:12;;;;;;;57.80;31.60;;;;;;;;;;2065238;28;20222;-59
2024/01/12 10:37:15;;;;;;;53.38;31.40;;;;;;;;;;2065098;28;20190;-62
2024/01/12 10:38:17;;;;;;;49.92;29.45;;;;;;;;;;2065928;28;20206;-62
2024/01/12 10:39:19;;;;;;;52.88;30.67;;;;;;;;;;2062061;28;20584;-62
2024/01/12 10:40:20;;;;;;;55.72;31.40;;;;;;;;;;2058837;28;20257;-62
2024/01/12 10:41:32;;;;;;;59.10;31.48;;;;;;;;;;2062674;28;20225;-62
2024/01/12 10:42:34;;;;;;;55.30;33.00;;;;;;;;;;2062296;28;20201;-62
2024/01/12 10:43:36;;;;;;;55.58;32.45;;;;;;;;;;2064519;28;20717;-62
2024/01/12 10:44:41;;;;;;;53.85;32.65;;;;;;;;;;2061287;28;20256;-62
2024/01/12 10:45:44;;;;;;;52.80;33.13;;;;;;;;;;2065663;28;20228;-62
2024/01/12 10:46:48;;;;;;;55.50;32.28;;;;;;;;;;2066820;28;20586;-62
2024/01/12 10:47:58;;;;;;;49.60;30.95;;;;;;;;;;2063424;28;20252;-62
2024/01/12 10:49:18;;;;;;;55.95;32.03;;;;;;;;;;2062827;28;20245;-62
2024/01/12 10:50:22;;;;;;;56.88;34.25;;;;;;;;;;2064063;28;20202;-62
2024/01/12 10:51:27;;;;;;;57.22;34.70;;;;;;;;;;2063125;28;20202;-62
2024/01/12 10:52:31;;;;;;;56.05;32.25;;;;;;;;;;2063014;28;20195;-61
2024/01/12 10:53:36;;;;;;;62.13;33.80;;;;;;;;;;2062110;28;20191;-62
2024/01/12 10:54:38;;;;;;;58.65;32.83;;;;;;;;;;2061354;28;20221;-62
2024/01/12 10:55:41;;;;;;;58.88;34.53;;;;;;;;;;2065374;28;20552;-62
2024/01/12 10:56:43;;;;;;;56.25;32.53;;;;;;;;;;2063828;28;20193;-62
2024/01/12 10:57:45;;;;;;;55.50;30.90;;;;;;;;;;2062354;28;20649;-62
2024/01/12 10:58:48;;;;;;;58.67;34.15;;;;;;;;;;2061023;28;20229;-62
2024/01/12 10:59:49;;;;;;;59.92;33.58;;;;;;;;;;2066161;28;20764;-62
2024/01/12 11:00:52;;;;;;;53.05;31.73;;;;;;;;;;2067519;28;20643;-61
2024/01/12 11:01:54;;;;;;;60.00;32.47;;;;;;;;;;2063379;28;20206;-62
2024/01/12 11:02:55;;;;;;;57.22;32.08;;;;;;;;;;2068160;28;20292;-62
2024/01/12 11:03:57;;;;;;;57.95;32.80;;;;;;;;;;2067475;28;20571;-62
2024/01/12 11:04:59;;;;;;;60.58;33.13;;;;;;;;;;2064733;28;20205;-62
2024/01/12 11:06:01;;;;;;;53.67;32.30;;;;;;;;;;2064734;28;20210;-61
2024/01/12 11:07:03;;;;;;;61.45;33.15;;;;;;;;;;2064284;28;20197;-62
2024/01/12 11:08:09;;;;;;;56.40;31.20;;;;;;;;;;2062511;28;20213;-61
2024/01/12 11:09:12;;;;;;;59.70;33.22;;;;;;;;;;2056545;28;20209;-62
2024/01/12 11:10:14;;;;;;;51.95;30.45;;;;;;;;;;2063412;28;20195;-62
2024/01/12 11:11:18;;;;;;;52.40;30.17;;;;;;;;;;2063648;28;20218;-62
2024/01/12 11:12:36;;;;;;;58.95;32.10;;;;;;;;;;2066680;28;20721;-62
2024/01/12 11:13:37;;;;;;;53.15;30.58;;;;;;;;;;2068102;28;20216;-62
2024/01/12 11:14:39;;;;;;;54.90;31.48;;;;;;;;;;2064351;28;20235;-61
2024/01/12 11:15:41;;;;;;;53.28;31.17;;;;;;;;;;2061374;28;20543;-61
2024/01/12 11:16:42;;;;;;;44.00;28.65;;;;;;;;;;2064158;28;20206;-62
2024/01/12 11:17:43;;;;;;;52.72;29.20;;;;;;;;;;2064065;28;20600;-62
2024/01/12 11:18:45;;;;;;;55.25;30.50;;;;;;;;;;2062260;28;20527;-64
2024/01/12 11:19:46;;;;;;;54.92;31.10;;;;;;;;;;2061971;28;20213;-62
2024/01/12 11:20:58;;;;;;;55.80;30.92;;;;;;;;;;2061924;28;20204;-61
2024/01/12 11:22:05;;;;;;;56.17;28.45;;;;;;;;;;2065269;28;20206;-62
2024/01/12 11:23:08;;;;;;;55.72;31.67;;;;;;;;;;2066354;28;20197;-61
2024/01/12 11:24:13;;;;;;;50.95;31.33;;;;;;;;;;2059362;28;20236;-61
2024/01/12 11:25:15;;;;;;;48.40;29.58;;;;;;;;;;2060511;28;20210;-59
2024/01/12 11:26:17;;;;;;;50.72;30.27;;;;;;;;;;2066761;28;20708;-59
2024/01/12 11:27:19;;;;;;;50.30;29.90;;;;;;;;;;2065530;28;20285;-59
2024/01/12 11:28:20;;;;;;;53.53;31.33;;;;;;;;;;2063749;28;20206;-59
2024/01/12 11:29:27;;;;;;;58.15;31.60;;;;;;;;;;2063998;28;20228;-59
2024/01/12 11:30:29;;;;;;;53.10;32.20;;;;;;;;;;2065380;28;20194;-59
2024/01/12 11:31:31;;;;;;;52.05;29.95;;;;;;;;;;2066977;28;20237;-66
2024/01/12 11:32:32;;;;;;;55.38;30.35;;;;;;;;;;2067645;28;20190;-60
2024/01/12 11:33:38;;;;;;;56.50;30.85;;;;;;;;;;2063707;28;20249;-59
2024/01/12 11:34:39;;;;;;;55.90;29.83;;;;;;;;;;2061764;28;20248;-60
2024/01/12 11:35:45;;;;;;;47.53;29.73;;;;;;;;;;2066493;28;20197;-60
2024/01/12 11:36:56;;;;;;;56.20;32.53;;;;;;;;;;2063199;28;20222;-61
2024/01/12 11:38:01;;;;;;;50.05;29.55;;;;;;;;;;2064259;28;20347;-60
2024/01/12 11:39:03;;;;;;;55.85;30.15;;;;;;;;;;2059088;28;20768;-60
2024/01/12 11:40:10;;;;;;;57.60;31.95;;;;;;;;;;2063778;28;20202;-60
2024/01/12 11:41:12;;;;;;;58.28;32.42;;;;;;;;;;2064121;28;20213;-60
2024/01/12 11:42:13;;;;;;;54.95;31.25;;;;;;;;;;2065338;28;20233;-60
2024/01/12 11:43:18;;;;;;;55.75;29.92;;;;;;;;;;2065068;28;20285;-60
2024/01/12 11:44:19;;;;;;;49.10;30.58;;;;;;;;;;2063762;28;20894;-60
2024/01/12 11:45:21;;;;;;;59.47;33.03;;;;;;;;;;2067010;28;20669;-60
2024/01/12 11:46:26;;;;;;;57.83;32.47;;;;;;;;;;2066045;28;20240;-59
2024/01/12 11:47:30;;;;;;;53.72;29.67;;;;;;;;;;2062499;28;20255;-60
2024/01/12 11:48:32;;;;;;;56.70;31.90;;;;;;;;;;2064885;28;20206;-60
2024/01/12 11:49:34;;;;;;;53.67;31.80;;;;;;;;;;2054385;28;20276;-60
2024/01/12 11:50:36;;;;;;;50.47;29.73;;;;;;;;;;2059985;28;20258;-60
2024/01/12 11:51:37;;;;;;;58.45;33.63;;;;;;;;;;2059783;28;20206;-59
2024/01/12 11:52:38;;;;;;;57.55;32.75;;;;;;;;;;2065872;28;20738;-59
2024/01/12 11:53:41;;;;;;;52.20;29.33;;;;;;;;;;2063464;28;20308;-60
2024/01/12 11:54:42;;;;;;;54.65;31.52;;;;;;;;;;2065236;28;20223;-60
2024/01/12 11:55:44;;;;;;;58.10;32.15;;;;;;;;;;2064551;28;20205;-60
2024/01/12 11:56:45;;;;;;;55.85;30.88;;;;;;;;;;2063570;28;20199;-60
2024/01/12 11:57:51;;;;;;;53.70;31.27;;;;;;;;;;2064123;28;20194;-61
2024/01/12 11:58:54;;;;;;;58.75;32.35;;;;;;;;;;2063786;28;20237;-60
2024/01/12 11:59:55;;;;;;;50.72;29.33;;;;;;;;;;2065003;28;20340;-60
2024/01/12 12:00:56;;;;;;;48.45;29.98;;;;;;;;;;2064718;28;20548;-60
2024/01/12 12:02:01;;;;;;;54.83;32.75;;;;;;;;;;2064928;28;20652;-60
2024/01/12 12:03:02;;;;;;;58.47;30.30;;;;;;;;;;2061836;28;20207;-60
2024/01/12 12:04:04;;;;;;;54.35;31.35;;;;;;;;;;2061534;28;20233;-60
2024/01/12 12:05:06;;;;;;;58.33;29.33;;;;;;;;;;2064052;28;20592;-60
2024/01/12 12:06:09;;;;;;;49.85;30.75;;;;;;;;;;2065188;28;20217;-60
2024/01/12 12:07:11;;;;;;;53.28;30.92;;;;;;;;;;2065500;28;20205;-60
2024/01/12 12:08:12;;;;;;;55.80;30.65;;;;;;;;;;2066773;28;20193;-60
2024/01/12 12:09:15;;;;;;;51.53;28.70;;;;;;;;;;2060752;28;20226;-60
2024/01/12 12:10:16;;;;;;;56.70;30.15;;;;;;;;;;2062395;28;20201;-60
2024/01/12 12:11:27;;;;;;;55.38;29.63;;;;;;;;;;2064363;28;20205;-60
2024/01/12 12:12:28;;;;;;;51.25;28.20;;;;;;;;;;2060623;28;20814;-60
2024/01/12 12:13:30;;;;;;;53.10;30.05;;;;;;;;;;2063455;28;20555;-60
2024/01/12 12:14:37;;;;;;;49.50;29.05;;;;;;;;;;2064498;28;20293;-60
2024/01/12 12:15:38;;;;;;;57.40;30.05;;;;;;;;;;2066678;28;20193;-60
2024/01/12 12:16:39;;;;;;;54.90;29.17;;;;;;;;;;2067142;28;20203;-60
2024/01/12 12:17:42;;;;;;;49.50;29.25;;;;;;;;;;2061651;28;20557;-60
2024/01/12 12:18:44;;;;;;;54.35;32.03;;;;;;;;;;2062638;28;20245;-60
2024/01/12 12:19:46;;;;;;;49.03;28.55;;;;;;;;;;2060077;28;20214;-60
2024/01/12 12:20:47;;;;;;;51.05;28.67;;;;;;;;;;2063078;28;20253;-60
2024/01/12 12:21:49;;;;;;;53.72;28.60;;;;;;;;;;2059287;28;20206;-60
2024/01/12 12:22:51;;;;;;;48.25;29.30;;;;;;;;;;2063641;28;20195;-60
2024/01/12 12:23:52;;;;;;;50.97;28.90;;;;;;;;;;2066135;28;20217;-60
2024/01/12 12:24:53;;;;;;;52.17;29.92;;;;;;;;;;2056315;28;20218;-60
2024/01/12 12:25:55;;;;;;;49.83;28.52;;;;;;;;;;2059384;28;20209;-60
2024/01/12 12:26:57;;;;;;;57.42;31.20;;;;;;;;;;2059831;28;20703;-60
2024/01/12 12:27:58;;;;;;;53.25;29.15;;;;;;;;;;2060640;28;20204;-60
2024/01/12 12:29:00;;;;;;;48.00;27.95;;;;;;;;;;2061879;28;20326;-60
2024/01/12 12:30:01;;;;;;;47.35;28.65;;;;;;;;;;2064794;28;20706;-60
2024/01/12 12:31:06;;;;;;;55.20;29.48;;;;;;;;;;2067380;28;20190;-60
2024/01/12 12:32:13;;;;;;;47.97;28.50;;;;;;;;;;2064160;28;20281;-60
2024/01/12 12:33:15;;;;;;;49.28;29.13;;;;;;;;;;2063498;28;20706;-61
2024/01/12 12:34:17;;;;;;;56.38;28.55;;;;;;;;;;2055199;28;20221;-60
2024/01/12 12:35:22;;;;;;;58.33;28.88;;;;;;;;;;2070164;28;20197;-60
2024/01/12 12:36:23;;;;;;;53.92;28.42;;;;;;;;;;2066804;28;20765;-60
2024/01/12 12:37:25;;;;;;;51.50;30.77;;;;;;;;;;2066283;28;20194;-60
2024/01/12 12:38:26;;;;;;;56.78;29.70;;;;;;;;;;2062963;28;20659;-60
2024/01/12 12:39:28;;;;;;;49.17;29.83;;;;;;;;;;2062834;28;20260;-60
2024/01/12 12:40:30;;;;;;;55.45;28.60;;;;;;;;;;2064850;28;20234;-60
2024/01/12 12:41:34;;;;;;;49.97;27.65;;;;;;;;;;2062986;28;20270;-62
2024/01/12 12:42:35;;;;;;;49.85;28.42;;;;;;;;;;2066013;28;20634;-63
2024/01/12 12:43:40;;;;;;;46.97;28.23;;;;;;;;;;2066651;28;20204;-63
2024/01/12 12:44:41;;;;;;;52.47;30.15;;;;;;;;;;2067245;28;20249;-62
2024/01/12 12:45:43;;;;;;;70.10;36.60;;;;;;;;;;2068589;28;20199;-61
2024/01/12 12:46:44;;;;;;;70.68;38.42;;;;;;;;;;2063634;28;20324;-62
2024/01/12 12:47:46;;;;;;;129.50;71.32;;;;;;;;;;2064773;28;20195;-62
2024/01/12 12:48:48;;;;;;;71.70;36.92;;;;;;;;;;2073002;28;20690;-61
2024/01/12 12:49:50;;;;;;;105.60;56.80;;;;;;;;;;2071747;28;20236;-61
2024/01/12 12:50:52;;;;;;;54.28;29.75;;;;;;;;;;2066033;28;20204;-62
2024/01/12 12:51:53;;;;;;;89.93;45.20;;;;;;;;;;2064002;28;20215;-60
2024/01/12 12:52:55;;;;;;;66.40;37.50;;;;;;;;;;2066994;28;20685;-60
2024/01/12 12:53:56;;;;;;;65.25;34.75;;;;;;;;;;2066236;28;20203;-60
2024/01/12 12:54:58;;;;;;;145.38;76.30;;;;;;;;;;2067634;28;20224;-60
2024/01/12 12:56:01;;;;;;;123.75;68.32;;;;;;;;;;2067893;28;20294;-61
2024/01/12 12:57:03;;;;;;;66.35;36.65;;;;;;;;;;2065974;28;20638;-60
2024/01/12 12:58:04;;;;;;;56.60;31.15;;;;;;;;;;2064442;28;20205;-60
2024/01/12 12:59:06;;;;;;;54.92;29.85;;;;;;;;;;2061902;28;20216;-60
2024/01/12 13:00:11;;;;;;;55.95;30.50;;;;;;;;;;2065685;28;20203;-60
2024/01/12 13:01:14;;;;;;;53.90;29.92;;;;;;;;;;2065618;28;20250;-60
2024/01/12 13:02:16;;;;;;;59.95;29.65;;;;;;;;;;2062716;28;20556;-60
2024/01/12 13:03:17;;;;;;;55.70;29.10;;;;;;;;;;2064267;28;20799;-60
2024/01/12 13:04:19;;;;;;;53.40;29.00;;;;;;;;;;2062924;28;20223;-60
2024/01/12 13:05:21;;;;;;;52.83;29.83;;;;;;;;;;2062535;28;20691;-60
2024/01/12 13:06:24;;;;;;;59.65;30.60;;;;;;;;;;2063093;28;20718;-60
2024/01/12 13:07:25;;;;;;;53.25;29.40;;;;;;;;;;2065357;28;20584;-60
2024/01/12 13:08:27;;;;;;;56.13;30.50;;;;;;;;;;2066535;28;20202;-60
2024/01/12 13:09:29;;;;;;;57.53;31.25;;;;;;;;;;2065867;28;20229;-60
2024/01/12 13:10:31;;;;;;;60.13;30.85;;;;;;;;;;2065704;28;20680;-60
2024/01/12 13:11:33;;;;;;;54.25;30.20;;;;;;;;;;2067771;28;20215;-60
2024/01/12 13:12:35;;;;;;;52.17;30.88;;;;;;;;;;2062406;28;20207;-60
2024/01/12 13:13:37;;;;;;;52.65;28.48;;;;;;;;;;2064271;28;20208;-60
2024/01/12 13:14:38;;;;;;;63.80;31.13;;;;;;;;;;2066488;28;20232;-60
2024/01/12 13:15:40;;;;;;;55.55;29.88;;;;;;;;;;2065279;28;20199;-61
2024/01/12 13:16:44;;;;;;;59.25;28.90;;;;;;;;;;2064349;28;20197;-61
2024/01/12 13:17:46;;;;;;;61.53;30.88;;;;;;;;;;2063829;28;20288;-63
2024/01/12 13:18:47;;;;;;;51.33;28.17;;;;;;;;;;2063855;28;20197;-63
2024/01/12 13:19:50;;;;;;;64.20;30.33;;;;;;;;;;2059418;28;20224;-62
2024/01/12 13:20:52;;;;;;;57.20;31.20;;;;;;;;;;2064096;28;20206;-62
2024/01/12 13:21:54;;;;;;;55.28;30.27;;;;;;;;;;2067761;28;20281;-62
2024/01/12 13:22:56;;;;;;;57.70;29.85;;;;;;;;;;2067241;28;20639;-63
2024/01/12 13:24:01;;;;;;;53.83;29.50;;;;;;;;;;2063468;28;20206;-63
2024/01/12 13:25:03;;;;;;;62.88;31.17;;;;;;;;;;2062494;28;20619;-63
2024/01/12 13:26:04;;;;;;;52.83;30.02;;;;;;;;;;2064677;28;20203;-63
2024/01/12 13:27:07;;;;;;;53.13;29.20;;;;;;;;;;2067597;28;20402;-63
2024/01/12 13:28:08;;;;;;;53.45;27.65;;;;;;;;;;2065567;28;20200;-62
2024/01/12 13:29:10;;;;;;;57.10;31.13;;;;;;;;;;2065462;28;20192;-62
2024/01/12 13:30:11;;;;;;;60.70;30.08;;;;;;;;;;2065826;28;20306;-63
2024/01/12 13:31:13;;;;;;;64.05;33.50;;;;;;;;;;2063210;28;20349;-62
2024/01/12 13:32:14;;;;;;;58.35;29.75;;;;;;;;;;2064692;28;20199;-62
2024/01/12 13:33:16;;;;;;;50.13;29.35;;;;;;;;;;2066117;28;20225;-63
2024/01/12 13:34:17;;;;;;;194.13;105.60;;;;;;;;;;2067732;28;20391;-62
2024/01/12 13:35:21;;;;;;;232.52;123.68;;;;;;;;;;2064596;28;20266;-63
2024/01/12 13:36:23;;;;;;;89.85;47.22;;;;;;;;;;2067641;28;20310;-61
2024/01/12 13:37:25;;;;;;;57.88;30.98;;;;;;;;;;2068265;28;20196;-60
2024/01/12 13:38:26;;;;;;;53.58;30.05;;;;;;;;;;2067986;28;20203;-61
2024/01/12 13:39:28;;;;;;;58.92;31.77;;;;;;;;;;2069489;28;20326;-60
2024/01/12 13:40:29;;;;;;;57.65;30.35;;;;;;;;;;2068136;28;20197;-61
2024/01/12 13:41:31;;;;;;;55.13;29.60;;;;;;;;;;2065806;28;20205;-61
2024/01/12 13:42:32;;;;;;;61.45;31.00;;;;;;;;;;2064879;28;20243;-61
2024/01/12 13:43:34;;;;;;;58.22;30.63;;;;;;;;;;2067399;28;20195;-60
2024/01/12 13:44:35;;;;;;;57.75;30.40;;;;;;;;;;2066568;28;20277;-61
2024/01/12 13:45:37;;;;;;;55.15;29.63;;;;;;;;;;2065892;28;20195;-61
2024/01/12 13:46:39;;;;;;;61.55;31.63;;;;;;;;;;2064021;28;20355;-61
2024/01/12 13:47:40;;;;;;;54.65;30.90;;;;;;;;;;2068231;28;20242;-61
2024/01/12 13:48:42;;;;;;;51.65;30.55;;;;;;;;;;2068635;28;20196;-63
2024/01/12 13:49:44;;;;;;;58.53;30.38;;;;;;;;;;2064055;28;20221;-61